Time;durP1;ratioP1;P1;durP2;ratioP2;P2;SDS_P1;SDS_P2;PMS_P1;PMS_P2;Temp;Humidity;BMP_temperature;BMP_pressure;BME280_temperature;BME280_humidity;BME280_pressure;Samples;Min_cycle;Max_cycle;Signal;HPM_P1;HPM_P2
2022/02/22 00:01:05;;;;;;;16.70;5.97;;;;;;;;;;4975005;28;20429;-63
2022/02/22 00:03:32;;;;;;;15.45;6.32;;;;;;;;;;4975013;28;20420;-62
2022/02/22 00:05:58;;;;;;;11.60;5.55;;;;;;;;;;4975162;28;20369;-62
2022/02/22 00:08:23;;;;;;;15.60;6.40;;;;;;;;;;4974874;28;20042;-63
2022/02/22 00:10:48;;;;;;;12.27;5.47;;;;;;;;;;4974957;28;20448;-63
2022/02/22 00:13:14;;;;;;;13.85;5.43;;;;;;;;;;4974833;28;20337;-63
2022/02/22 00:15:39;;;;;;;12.55;5.65;;;;;;;;;;4975003;28;20428;-62
2022/02/22 00:18:04;;;;;;;13.85;5.05;;;;;;;;;;4974979;28;20400;-62
2022/02/22 00:20:30;;;;;;;12.70;5.57;;;;;;;;;;4974759;28;20321;-63
2022/02/22 00:22:55;;;;;;;11.52;5.38;;;;;;;;;;4974685;28;20369;-63
2022/02/22 00:25:20;;;;;;;11.45;4.80;;;;;;;;;;4971460;28;20440;-63
2022/02/22 00:27:46;;;;;;;10.88;4.25;;;;;;;;;;4973389;28;20116;-63
2022/02/22 00:30:12;;;;;;;12.55;4.28;;;;;;;;;;4972461;28;20448;-62
2022/02/22 00:32:39;;;;;;;13.85;5.43;;;;;;;;;;4971443;28;20096;-63
2022/02/22 00:35:14;;;;;;;12.65;4.90;;;;;;;;;;4972527;28;20417;-63
2022/02/22 00:37:40;;;;;;;11.48;5.43;;;;;;;;;;4971462;28;20026;-63
2022/02/22 00:40:06;;;;;;;11.68;4.75;;;;;;;;;;4971843;28;20471;-62
2022/02/22 00:42:32;;;;;;;10.60;4.22;;;;;;;;;;4971996;28;20423;-63
2022/02/22 00:44:57;;;;;;;9.23;4.45;;;;;;;;;;4971350;28;20452;-62
2022/02/22 00:47:22;;;;;;;10.52;4.38;;;;;;;;;;4971790;28;20030;-63
2022/02/22 00:49:47;;;;;;;9.38;4.10;;;;;;;;;;4972203;28;20364;-62
2022/02/22 00:52:13;;;;;;;9.48;4.00;;;;;;;;;;4971842;28;20460;-62
2022/02/22 00:54:38;;;;;;;10.68;3.92;;;;;;;;;;4971900;28;20419;-63
2022/02/22 00:57:04;;;;;;;11.65;4.47;;;;;;;;;;4971078;28;20463;-62
2022/02/22 00:59:29;;;;;;;9.93;4.07;;;;;;;;;;4971095;28;20034;-62
2022/02/22 01:01:55;;;;;;;11.65;4.80;;;;;;;;;;4982738;28;20029;-63
2022/02/22 01:04:21;;;;;;;10.85;4.50;;;;;;;;;;4971141;28;20326;-62
2022/02/22 01:06:47;;;;;;;12.93;4.18;;;;;;;;;;4971345;28;20333;-62
2022/02/22 01:09:13;;;;;;;10.35;4.50;;;;;;;;;;4970294;28;20045;-62
2022/02/22 01:11:39;;;;;;;13.77;5.13;;;;;;;;;;4970936;28;20407;-63
2022/02/22 01:14:05;;;;;;;9.27;3.97;;;;;;;;;;4971332;28;20421;-63
2022/02/22 01:16:30;;;;;;;9.82;3.67;;;;;;;;;;4971042;28;20460;-62
2022/02/22 01:18:56;;;;;;;8.60;3.35;;;;;;;;;;4970843;28;20471;-62
2022/02/22 01:21:21;;;;;;;10.48;4.63;;;;;;;;;;4970902;28;20396;-62
2022/02/22 01:23:46;;;;;;;9.38;3.42;;;;;;;;;;4970680;28;20330;-62
2022/02/22 01:26:12;;;;;;;9.95;3.22;;;;;;;;;;4971004;28;20452;-62
2022/02/22 01:28:37;;;;;;;11.23;3.83;;;;;;;;;;4971221;28;20544;-63
2022/02/22 01:31:03;;;;;;;10.32;3.67;;;;;;;;;;4971125;28;20409;-63
2022/02/22 01:33:28;;;;;;;9.05;4.18;;;;;;;;;;4970848;28;20488;-62
2022/02/22 01:35:53;;;;;;;9.00;3.42;;;;;;;;;;4969714;28;20433;-63
2022/02/22 01:38:19;;;;;;;9.02;3.85;;;;;;;;;;4970514;28;20325;-62
2022/02/22 01:40:44;;;;;;;9.77;3.15;;;;;;;;;;4970467;28;20069;-63
2022/02/22 01:43:10;;;;;;;7.05;3.08;;;;;;;;;;4970282;28;20433;-63
2022/02/22 01:45:36;;;;;;;10.63;3.30;;;;;;;;;;4970417;28;20022;-63
2022/02/22 01:48:03;;;;;;;8.43;3.55;;;;;;;;;;4971722;28;20348;-62
2022/02/22 01:50:29;;;;;;;13.90;3.55;;;;;;;;;;4970015;28;20431;-63
2022/02/22 01:52:54;;;;;;;8.00;3.72;;;;;;;;;;4971829;28;20351;-63
2022/02/22 01:55:20;;;;;;;7.97;3.40;;;;;;;;;;4970097;28;20443;-62
2022/02/22 01:57:46;;;;;;;9.35;3.78;;;;;;;;;;4970178;28;20445;-62
2022/02/22 02:00:12;;;;;;;9.13;3.53;;;;;;;;;;4970411;28;20043;-63
2022/02/22 02:02:37;;;;;;;8.82;3.35;;;;;;;;;;4969980;28;20415;-63
2022/02/22 02:05:03;;;;;;;6.43;2.65;;;;;;;;;;4969973;28;20368;-64
2022/02/22 02:07:29;;;;;;;8.00;3.22;;;;;;;;;;4969453;28;20414;-64
2022/02/22 02:09:54;;;;;;;6.65;3.08;;;;;;;;;;4971112;28;20377;-63
2022/02/22 02:12:20;;;;;;;7.10;3.25;;;;;;;;;;4970134;28;20535;-64
2022/02/22 02:14:46;;;;;;;7.38;3.00;;;;;;;;;;4969678;28;20518;-62
2022/02/22 02:17:11;;;;;;;5.68;2.75;;;;;;;;;;4969918;28;20512;-62
2022/02/22 02:19:40;;;;;;;7.38;3.10;;;;;;;;;;4969777;28;20470;-63
2022/02/22 02:22:05;;;;;;;5.40;2.03;;;;;;;;;;4969645;28;20429;-63
2022/02/22 02:24:30;;;;;;;7.05;3.47;;;;;;;;;;4969709;28;20379;-63
2022/02/22 02:26:56;;;;;;;11.05;2.63;;;;;;;;;;4969757;28;20415;-63
2022/02/22 02:29:24;;;;;;;11.32;2.80;;;;;;;;;;4969810;28;20344;-63
2022/02/22 02:31:53;;;;;;;7.95;2.90;;;;;;;;;;4969981;28;20056;-63
2022/02/22 02:34:20;;;;;;;6.53;3.08;;;;;;;;;;4969652;28;20029;-64
2022/02/22 02:36:46;;;;;;;8.57;2.70;;;;;;;;;;4969295;28;20480;-63
2022/02/22 02:39:12;;;;;;;5.35;2.53;;;;;;;;;;4969784;28;20439;-64
2022/02/22 02:41:38;;;;;;;9.98;3.22;;;;;;;;;;4969545;28;20364;-64
2022/02/22 02:44:10;;;;;;;5.40;2.63;;;;;;;;;;4971433;28;20194;-64
2022/02/22 02:46:35;;;;;;;5.68;2.38;;;;;;;;;;4969144;28;20380;-63
2022/02/22 02:49:01;;;;;;;7.18;2.38;;;;;;;;;;4969225;28;20091;-63
2022/02/22 02:51:26;;;;;;;5.35;2.65;;;;;;;;;;4970016;28;20550;-63
2022/02/22 02:53:53;;;;;;;9.13;2.45;;;;;;;;;;4969761;28;20407;-62
2022/02/22 02:56:25;;;;;;;8.15;2.63;;;;;;;;;;4970092;28;20424;-63
2022/02/22 02:58:56;;;;;;;4.80;2.38;;;;;;;;;;4969747;28;20384;-62
2022/02/22 03:01:21;;;;;;;5.13;2.00;;;;;;;;;;4969122;28;20344;-64
2022/02/22 03:03:47;;;;;;;4.63;2.20;;;;;;;;;;4969227;28;20037;-62
2022/02/22 03:06:12;;;;;;;4.65;2.17;;;;;;;;;;4969842;28;20449;-62
2022/02/22 03:08:37;;;;;;;5.47;1.98;;;;;;;;;;4968904;28;20412;-63
2022/02/22 03:11:03;;;;;;;3.88;2.17;;;;;;;;;;4970097;28;20037;-63
2022/02/22 03:13:28;;;;;;;5.10;2.33;;;;;;;;;;4969025;28;20456;-63
2022/02/22 03:15:53;;;;;;;3.63;1.98;;;;;;;;;;4969334;28;20180;-63
2022/02/22 03:18:19;;;;;;;5.75;2.22;;;;;;;;;;4969242;28;20490;-63
2022/02/22 03:20:44;;;;;;;12.90;2.60;;;;;;;;;;4970429;28;20424;-63
2022/02/22 03:23:09;;;;;;;4.28;1.95;;;;;;;;;;4969101;28;20468;-63
2022/02/22 03:25:35;;;;;;;5.43;2.13;;;;;;;;;;4969295;28;20467;-63
2022/02/22 03:28:04;;;;;;;3.58;1.77;;;;;;;;;;4969644;28;20437;-62
2022/02/22 03:30:32;;;;;;;5.03;1.98;;;;;;;;;;4969627;28;20334;-63
2022/02/22 03:33:00;;;;;;;4.05;1.80;;;;;;;;;;4968817;28;20417;-63
2022/02/22 03:35:26;;;;;;;5.63;1.80;;;;;;;;;;4969829;28;20417;-63
2022/02/22 03:37:52;;;;;;;4.43;2.10;;;;;;;;;;4968971;28;20429;-62
2022/02/22 03:40:17;;;;;;;3.28;1.90;;;;;;;;;;4969212;28;20376;-64
2022/02/22 03:42:44;;;;;;;3.45;1.63;;;;;;;;;;4969243;28;20429;-63
2022/02/22 03:45:14;;;;;;;5.47;2.05;;;;;;;;;;4968838;28;20366;-63
2022/02/22 03:47:40;;;;;;;4.53;1.90;;;;;;;;;;4968829;28;20563;-63
2022/02/22 03:50:07;;;;;;;4.32;1.77;;;;;;;;;;4969049;28;20419;-63
2022/02/22 03:52:33;;;;;;;4.50;1.80;;;;;;;;;;4969328;28;20384;-63
2022/02/22 03:54:58;;;;;;;2.35;1.30;;;;;;;;;;4968481;28;20423;-63
2022/02/22 03:57:23;;;;;;;4.13;1.75;;;;;;;;;;4968747;28;20380;-62
2022/02/22 03:59:49;;;;;;;5.90;1.85;;;;;;;;;;4971020;28;20441;-63
2022/02/22 04:02:14;;;;;;;2.13;1.40;;;;;;;;;;4972375;28;20481;-64
2022/02/22 04:04:39;;;;;;;3.10;1.40;;;;;;;;;;4972215;28;20129;-63
2022/02/22 04:07:05;;;;;;;3.13;1.70;;;;;;;;;;4972293;28;20033;-63
2022/02/22 04:09:30;;;;;;;4.25;1.52;;;;;;;;;;4972341;28;20477;-63
2022/02/22 04:11:56;;;;;;;4.00;1.73;;;;;;;;;;4972550;28;20424;-63
2022/02/22 04:14:21;;;;;;;2.17;1.20;;;;;;;;;;4972268;28;20448;-63
2022/02/22 04:16:46;;;;;;;1.42;1.00;;;;;;;;;;4972250;28;20478;-63
2022/02/22 04:19:12;;;;;;;4.40;1.45;;;;;;;;;;4971972;28;20424;-64
2022/02/22 04:21:37;;;;;;;2.75;1.17;;;;;;;;;;4972180;28;20547;-63
2022/02/22 04:24:02;;;;;;;4.10;2.08;;;;;;;;;;4971914;28;20575;-63
2022/02/22 04:26:28;;;;;;;4.03;1.48;;;;;;;;;;4971755;28;20444;-63
2022/02/22 04:28:55;;;;;;;2.45;1.33;;;;;;;;;;4971802;28;20388;-63
2022/02/22 04:31:21;;;;;;;3.05;1.70;;;;;;;;;;4973165;28;20448;-64
2022/02/22 04:33:46;;;;;;;3.45;1.50;;;;;;;;;;4972967;28;20448;-66
2022/02/22 04:36:11;;;;;;;3.72;1.65;;;;;;;;;;4972837;28;20417;-63
2022/02/22 04:38:37;;;;;;;3.30;1.33;;;;;;;;;;4972012;28;20298;-63
2022/02/22 04:41:02;;;;;;;2.97;1.45;;;;;;;;;;4971813;28;20463;-63
2022/02/22 04:43:27;;;;;;;3.25;1.58;;;;;;;;;;4971809;28;20433;-63
2022/02/22 04:45:53;;;;;;;3.20;1.60;;;;;;;;;;4971195;28;20100;-63
2022/02/22 04:48:18;;;;;;;3.65;1.02;;;;;;;;;;4972192;28;20419;-63
2022/02/22 04:50:43;;;;;;;2.67;1.13;;;;;;;;;;4971435;28;20441;-63
2022/02/22 04:53:09;;;;;;;2.17;1.42;;;;;;;;;;4972115;28;20496;-63
2022/02/22 04:55:35;;;;;;;2.83;1.30;;;;;;;;;;4971152;28;20349;-64
2022/02/22 04:58:00;;;;;;;1.45;1.15;;;;;;;;;;4971021;28;20033;-64
2022/02/22 05:00:26;;;;;;;4.13;1.45;;;;;;;;;;4971810;28;20099;-63
2022/02/22 05:02:51;;;;;;;3.15;1.27;;;;;;;;;;4971056;28;20391;-63
2022/02/22 05:05:17;;;;;;;1.77;1.02;;;;;;;;;;4972563;28;20466;-62
2022/02/22 05:07:42;;;;;;;1.38;1.00;;;;;;;;;;4970879;28;20444;-63
2022/02/22 05:10:08;;;;;;;3.70;1.30;;;;;;;;;;4971502;28;20422;-64
2022/02/22 05:12:33;;;;;;;2.38;1.40;;;;;;;;;;4971053;28;20029;-62
2022/02/22 05:14:59;;;;;;;1.48;0.93;;;;;;;;;;4971238;28;20401;-62
2022/02/22 05:17:24;;;;;;;3.08;1.10;;;;;;;;;;4970973;28;20498;-64
2022/02/22 05:19:49;;;;;;;1.65;1.23;;;;;;;;;;4970964;28;20029;-62
2022/02/22 05:22:15;;;;;;;1.80;1.20;;;;;;;;;;4971239;28;20444;-63
2022/02/22 05:24:40;;;;;;;2.70;1.33;;;;;;;;;;4970806;28;20424;-63
2022/02/22 05:27:05;;;;;;;2.08;1.20;;;;;;;;;;4971030;28;20444;-63
2022/02/22 05:29:31;;;;;;;2.47;1.00;;;;;;;;;;4970380;28;20475;-63
2022/02/22 05:31:56;;;;;;;2.40;1.13;;;;;;;;;;4970805;28;20403;-63
2022/02/22 05:34:22;;;;;;;1.80;1.02;;;;;;;;;;4969242;28;20446;-64
2022/02/22 05:36:48;;;;;;;2.38;1.35;;;;;;;;;;4970840;28;20527;-63
2022/02/22 05:39:14;;;;;;;1.95;1.00;;;;;;;;;;4970639;28;20132;-63
2022/02/22 05:41:39;;;;;;;4.28;1.23;;;;;;;;;;4970830;28;20025;-62
2022/02/22 05:44:04;;;;;;;1.50;1.10;;;;;;;;;;4970394;28;20428;-63
2022/02/22 05:46:29;;;;;;;3.85;1.10;;;;;;;;;;4970845;28;20428;-64
2022/02/22 05:48:55;;;;;;;2.03;0.98;;;;;;;;;;4970289;28;20422;-62
2022/02/22 05:51:20;;;;;;;1.65;1.00;;;;;;;;;;4970651;28;20037;-64
2022/02/22 05:53:48;;;;;;;4.03;1.20;;;;;;;;;;4969783;28;20337;-62
2022/02/22 05:56:13;;;;;;;4.03;1.15;;;;;;;;;;4971242;28;20322;-63
2022/02/22 05:58:39;;;;;;;1.83;1.15;;;;;;;;;;4970228;28;20083;-63
2022/02/22 06:01:04;;;;;;;3.22;1.30;;;;;;;;;;4969858;28;20372;-62
2022/02/22 06:03:29;;;;;;;1.67;1.20;;;;;;;;;;4970169;28;20503;-63
2022/02/22 06:05:55;;;;;;;2.72;1.83;;;;;;;;;;4970200;28;20422;-62
2022/02/22 06:08:20;;;;;;;2.33;1.20;;;;;;;;;;4969554;28;20330;-63
2022/02/22 06:10:47;;;;;;;2.00;1.00;;;;;;;;;;4969975;28;20112;-64
2022/02/22 06:13:13;;;;;;;3.70;1.27;;;;;;;;;;4969663;28;20441;-62
2022/02/22 06:15:38;;;;;;;2.20;1.20;;;;;;;;;;4969994;28;20459;-63
2022/02/22 06:18:04;;;;;;;2.70;1.42;;;;;;;;;;4969992;28;20029;-63
2022/02/22 06:20:32;;;;;;;1.90;1.20;;;;;;;;;;4970171;28;20555;-62
2022/02/22 06:22:57;;;;;;;3.55;1.40;;;;;;;;;;4969711;28;20412;-62
2022/02/22 06:25:22;;;;;;;2.33;1.30;;;;;;;;;;4970197;28;20544;-63
2022/02/22 06:27:52;;;;;;;2.40;1.15;;;;;;;;;;4969450;28;20490;-63
2022/02/22 06:30:18;;;;;;;3.72;1.30;;;;;;;;;;4969908;28;20309;-63
2022/02/22 06:32:43;;;;;;;3.08;1.45;;;;;;;;;;4969618;28;20469;-63
2022/02/22 06:35:09;;;;;;;2.60;1.30;;;;;;;;;;4969515;28;20095;-62
2022/02/22 06:37:34;;;;;;;5.15;1.63;;;;;;;;;;4969609;28;20460;-63
2022/02/22 06:40:00;;;;;;;3.45;1.40;;;;;;;;;;4971215;28;20343;-63
2022/02/22 06:42:25;;;;;;;2.67;1.40;;;;;;;;;;4969453;28;20433;-63
2022/02/22 06:44:50;;;;;;;3.30;1.65;;;;;;;;;;4969421;28;20140;-63
2022/02/22 06:47:16;;;;;;;3.20;1.27;;;;;;;;;;4970272;28;20376;-63
2022/02/22 06:49:41;;;;;;;3.03;1.10;;;;;;;;;;4969222;28;20452;-62
2022/02/22 06:52:07;;;;;;;2.35;1.38;;;;;;;;;;4969590;28;20356;-62
2022/02/22 06:54:32;;;;;;;2.42;1.20;;;;;;;;;;4970190;28;20409;-62
2022/02/22 06:56:57;;;;;;;3.38;1.15;;;;;;;;;;4969825;28;20325;-63
2022/02/22 06:59:23;;;;;;;2.65;1.35;;;;;;;;;;4969362;28;20406;-63
2022/02/22 07:01:48;;;;;;;4.22;1.45;;;;;;;;;;4968965;28;20334;-62
2022/02/22 07:04:13;;;;;;;2.80;1.75;;;;;;;;;;4969245;28;20322;-63
2022/02/22 07:06:39;;;;;;;3.42;1.40;;;;;;;;;;4969232;28;20417;-63
2022/02/22 07:09:06;;;;;;;4.85;1.70;;;;;;;;;;4968637;28;20551;-62
2022/02/22 07:11:31;;;;;;;4.47;1.63;;;;;;;;;;4970250;28;20095;-63
2022/02/22 07:13:56;;;;;;;2.67;1.23;;;;;;;;;;4968845;28;20523;-64
2022/02/22 07:16:21;;;;;;;2.53;1.30;;;;;;;;;;4969102;28;20436;-64
2022/02/22 07:18:47;;;;;;;3.47;1.67;;;;;;;;;;4968860;28;20469;-63
2022/02/22 07:21:12;;;;;;;3.58;1.40;;;;;;;;;;4970195;28;20492;-63
2022/02/22 07:23:37;;;;;;;8.15;1.77;;;;;;;;;;4970222;28;20483;-63
2022/02/22 07:26:03;;;;;;;4.60;1.33;;;;;;;;;;4968900;28;20468;-63
2022/02/22 07:28:28;;;;;;;2.33;1.58;;;;;;;;;;4967365;28;20326;-62
2022/02/22 07:30:53;;;;;;;3.55;1.42;;;;;;;;;;4969074;28;20519;-63
2022/02/22 07:33:19;;;;;;;5.00;1.65;;;;;;;;;;4970715;28;20416;-62
2022/02/22 07:35:44;;;;;;;3.83;1.60;;;;;;;;;;4972660;28;20079;-63
2022/02/22 07:38:09;;;;;;;4.60;2.20;;;;;;;;;;4972830;28;20417;-64
2022/02/22 07:40:34;;;;;;;3.72;1.55;;;;;;;;;;4974081;28;20348;-63
2022/02/22 07:43:01;;;;;;;3.92;2.10;;;;;;;;;;4972874;28;20433;-63
2022/02/22 07:45:27;;;;;;;3.28;1.63;;;;;;;;;;4972842;28;20461;-62
2022/02/22 07:47:52;;;;;;;3.45;1.75;;;;;;;;;;4973527;28;20425;-63
2022/02/22 07:50:18;;;;;;;4.10;1.75;;;;;;;;;;4972916;28;20520;-62
2022/02/22 07:52:43;;;;;;;7.00;1.58;;;;;;;;;;4972213;28;20524;-63
2022/02/22 07:55:09;;;;;;;2.83;1.45;;;;;;;;;;4972997;28;20468;-63
2022/02/22 07:57:34;;;;;;;6.03;2.30;;;;;;;;;;4972344;28;20515;-63
2022/02/22 07:59:59;;;;;;;5.53;1.70;;;;;;;;;;4972677;28;20494;-64
2022/02/22 08:02:25;;;;;;;6.07;1.80;;;;;;;;;;4972200;28;20502;-64
2022/02/22 08:04:50;;;;;;;4.53;1.60;;;;;;;;;;4974225;28;20377;-63
2022/02/22 08:07:20;;;;;;;5.38;1.73;;;;;;;;;;4971955;28;20453;-63
2022/02/22 08:09:45;;;;;;;2.28;1.27;;;;;;;;;;4971812;28;20441;-63
2022/02/22 08:12:11;;;;;;;3.65;1.65;;;;;;;;;;4972464;28;20340;-63
2022/02/22 08:14:36;;;;;;;4.28;1.60;;;;;;;;;;4972115;28;20574;-63
2022/02/22 08:17:01;;;;;;;7.75;1.90;;;;;;;;;;4971861;28;20408;-63
2022/02/22 08:19:27;;;;;;;6.78;2.55;;;;;;;;;;4972836;28;20497;-62
2022/02/22 08:21:53;;;;;;;4.60;1.83;;;;;;;;;;4971901;28;20021;-62
2022/02/22 08:24:18;;;;;;;6.10;1.85;;;;;;;;;;4972016;28;20415;-64
2022/02/22 08:26:44;;;;;;;6.53;2.03;;;;;;;;;;4972015;28;20451;-63
2022/02/22 08:29:09;;;;;;;6.90;1.92;;;;;;;;;;4973580;28;20388;-63
2022/02/22 08:31:34;;;;;;;3.17;1.55;;;;;;;;;;4971735;28;20356;-63
2022/02/22 08:34:02;;;;;;;4.22;2.10;;;;;;;;;;4971672;28;20112;-63
2022/02/22 08:36:28;;;;;;;5.53;1.95;;;;;;;;;;4971666;28;20436;-63
2022/02/22 08:38:54;;;;;;;4.25;1.98;;;;;;;;;;4971417;28;20459;-63
2022/02/22 08:41:19;;;;;;;5.10;2.10;;;;;;;;;;4972785;28;20468;-64
2022/02/22 08:43:45;;;;;;;2.90;1.58;;;;;;;;;;4971445;28;20360;-63
2022/02/22 08:46:10;;;;;;;4.97;1.98;;;;;;;;;;4971152;28;20428;-63
2022/02/22 15:50:47;;;;;;;7.47;3.17;;;;;;;;;;4948160;28;20483;-63
2022/02/22 15:53:12;;;;;;;;;;;;;;;;;;4968648;28;20357;-64
2022/02/22 15:55:38;;;;;;;8.32;3.30;;;;;;;;;;4970756;28;20303;-63
2022/02/22 15:58:04;;;;;;;10.80;3.22;;;;;;;;;;4970916;28;20329;-63
2022/02/22 16:00:29;;;;;;;11.20;3.30;;;;;;;;;;4972789;28;20344;-63
2022/02/22 16:02:55;;;;;;;9.57;3.22;;;;;;;;;;4972185;28;20317;-63
2022/02/22 16:05:20;;;;;;;8.82;3.00;;;;;;;;;;4972096;28;20037;-63
2022/02/22 16:07:48;;;;;;;11.88;3.90;;;;;;;;;;4972004;28;20502;-63
2022/02/22 16:10:14;;;;;;;9.43;3.67;;;;;;;;;;4970604;28;20425;-63
2022/02/22 16:12:39;;;;;;;11.60;3.75;;;;;;;;;;4972914;28;20479;-63
2022/02/22 16:15:05;;;;;;;9.68;2.88;;;;;;;;;;4972009;28;20384;-63
2022/02/22 16:17:30;;;;;;;10.18;3.15;;;;;;;;;;4972186;28;20034;-63
2022/02/22 16:19:56;;;;;;;11.50;3.42;;;;;;;;;;4972232;28;20487;-62
2022/02/22 16:22:21;;;;;;;7.15;3.45;;;;;;;;;;4972019;28;20465;-63
2022/02/22 16:24:47;;;;;;;12.95;3.30;;;;;;;;;;4972205;28;20106;-63
2022/02/22 16:27:12;;;;;;;9.13;3.15;;;;;;;;;;4971641;28;20595;-63
2022/02/22 16:29:38;;;;;;;8.07;3.00;;;;;;;;;;4971954;28;20302;-63
2022/02/22 16:32:05;;;;;;;8.93;4.13;;;;;;;;;;4973083;28;20033;-63
2022/02/22 16:34:31;;;;;;;9.50;3.42;;;;;;;;;;4972735;28;20052;-63
2022/02/22 16:36:56;;;;;;;7.57;2.95;;;;;;;;;;4972027;28;20380;-63
2022/02/22 16:39:23;;;;;;;11.15;3.28;;;;;;;;;;4972599;28;20333;-63
2022/02/22 16:41:48;;;;;;;7.40;2.90;;;;;;;;;;4972866;28;20034;-63
2022/02/22 16:44:14;;;;;;;10.00;2.50;;;;;;;;;;4971683;28;20499;-64
2022/02/22 16:46:42;;;;;;;9.43;2.47;;;;;;;;;;4971580;28;20514;-63
2022/02/22 16:49:09;;;;;;;6.75;2.72;;;;;;;;;;4971677;28;20033;-63
2022/02/22 16:51:34;;;;;;;9.30;3.47;;;;;;;;;;4971784;28;20346;-63
2022/02/22 16:53:59;;;;;;;7.45;2.45;;;;;;;;;;4972408;28;20388;-63
2022/02/22 16:56:25;;;;;;;8.60;2.45;;;;;;;;;;4972115;28;20326;-63
2022/02/22 16:58:50;;;;;;;8.23;2.55;;;;;;;;;;4971373;28;20056;-62
2022/02/22 17:01:15;;;;;;;7.32;3.03;;;;;;;;;;4971441;28;20117;-63
2022/02/22 17:03:41;;;;;;;11.40;3.00;;;;;;;;;;4971306;28;20033;-63
2022/02/22 17:06:06;;;;;;;6.30;2.20;;;;;;;;;;4971094;28;20398;-63
2022/02/22 17:08:32;;;;;;;8.00;2.42;;;;;;;;;;4971212;28;20399;-63
2022/02/22 17:10:58;;;;;;;8.82;3.40;;;;;;;;;;4970863;28;20439;-63
2022/02/22 17:13:23;;;;;;;9.38;2.78;;;;;;;;;;4970525;28;20353;-63
2022/02/22 17:15:49;;;;;;;11.10;2.72;;;;;;;;;;4970806;28;20096;-63
2022/02/22 17:18:17;;;;;;;8.70;2.85;;;;;;;;;;4970624;28;20052;-63
2022/02/22 17:20:47;;;;;;;6.88;2.72;;;;;;;;;;4970914;28;20306;-63
2022/02/22 17:23:12;;;;;;;;;;;;;;;;;;4971246;28;20491;-63
2022/02/22 17:25:37;;;;;;;8.57;3.10;;;;;;;;;;4969440;28;20349;-63
2022/02/22 17:28:03;;;;;;;8.55;2.80;;;;;;;;;;4971775;28;20029;-63
2022/02/22 17:30:28;;;;;;;6.30;2.65;;;;;;;;;;4972093;28;20041;-62
2022/02/22 17:32:54;;;;;;;7.25;3.25;;;;;;;;;;4970522;28;20326;-63
2022/02/22 17:35:19;;;;;;;7.82;3.22;;;;;;;;;;4971314;28;20080;-63
2022/02/22 17:37:45;;;;;;;8.57;2.95;;;;;;;;;;4971415;28;20025;-63
2022/02/22 17:40:12;;;;;;;7.90;2.70;;;;;;;;;;4969362;28;20484;-63
2022/02/22 17:42:38;;;;;;;9.98;3.00;;;;;;;;;;4971018;28;20348;-62
2022/02/22 17:45:04;;;;;;;9.43;3.10;;;;;;;;;;4970518;28;20341;-63
2022/02/22 17:47:30;;;;;;;9.45;3.13;;;;;;;;;;4971137;28;20025;-63
2022/02/22 17:49:55;;;;;;;7.47;3.38;;;;;;;;;;4970177;28;20554;-63
2022/02/22 17:52:21;;;;;;;11.45;3.40;;;;;;;;;;4970251;28;20112;-63
2022/02/22 17:54:47;;;;;;;8.30;3.33;;;;;;;;;;4972607;28;20364;-63
2022/02/22 17:57:12;;;;;;;6.43;2.60;;;;;;;;;;4970955;28;20392;-64
2022/02/22 17:59:38;;;;;;;9.10;2.65;;;;;;;;;;4971745;28;20459;-63
2022/02/22 18:02:04;;;;;;;9.27;2.80;;;;;;;;;;4970201;28;20436;-64
2022/02/22 18:04:30;;;;;;;8.77;3.20;;;;;;;;;;4970105;28;20444;-63
2022/02/22 18:06:55;;;;;;;6.70;3.08;;;;;;;;;;4971083;28;20433;-62
2022/02/22 18:09:23;;;;;;;8.77;3.25;;;;;;;;;;4971038;28;20439;-63
2022/02/22 18:11:48;;;;;;;6.18;2.50;;;;;;;;;;4971044;28;20420;-63
2022/02/22 18:14:16;;;;;;;10.10;3.22;;;;;;;;;;4970161;28;20560;-63
2022/02/22 18:16:42;;;;;;;9.07;2.90;;;;;;;;;;4969721;28;20441;-63
2022/02/22 18:19:08;;;;;;;10.07;3.20;;;;;;;;;;4969600;28;20056;-63
2022/02/22 18:21:35;;;;;;;9.90;2.97;;;;;;;;;;4969749;28;20037;-63
2022/02/22 18:24:02;;;;;;;10.10;3.10;;;;;;;;;;4969631;28;20459;-63
2022/02/22 18:26:27;;;;;;;10.60;2.97;;;;;;;;;;4969843;28;20437;-63
2022/02/22 18:28:55;;;;;;;7.88;3.33;;;;;;;;;;4969289;28;20329;-64
2022/02/22 18:31:20;;;;;;;10.00;3.40;;;;;;;;;;4969888;28;20376;-63
2022/02/22 18:33:46;;;;;;;9.15;3.38;;;;;;;;;;4970979;28;20322;-63
2022/02/22 18:36:16;;;;;;;7.70;3.35;;;;;;;;;;4969726;28;20404;-63
2022/02/22 18:38:41;;;;;;;10.27;3.22;;;;;;;;;;4969853;28;20340;-63
2022/02/22 18:41:07;;;;;;;9.75;3.45;;;;;;;;;;4969835;28;20369;-63
2022/02/22 18:43:32;;;;;;;9.65;3.42;;;;;;;;;;4968136;28;20030;-63
2022/02/22 18:45:58;;;;;;;9.93;3.38;;;;;;;;;;4970850;28;20530;-63
2022/02/22 18:48:24;;;;;;;8.63;4.03;;;;;;;;;;4969374;28;20354;-63
2022/02/22 18:50:49;;;;;;;7.63;2.95;;;;;;;;;;4968764;28;20088;-63
2022/02/22 18:53:14;;;;;;;8.95;2.90;;;;;;;;;;4969165;28;20435;-64
2022/02/22 18:55:40;;;;;;;11.30;3.33;;;;;;;;;;4970277;28;20500;-63
2022/02/22 18:58:07;;;;;;;9.82;4.00;;;;;;;;;;4969062;28;20429;-63
2022/02/22 19:00:33;;;;;;;8.70;3.50;;;;;;;;;;4969218;28;20440;-63
2022/02/22 19:02:58;;;;;;;12.82;3.80;;;;;;;;;;4969717;28;20313;-63
2022/02/22 19:05:23;;;;;;;7.72;3.75;;;;;;;;;;4970110;28;20353;-63
2022/02/22 19:07:49;;;;;;;11.80;4.18;;;;;;;;;;4969317;28;20440;-62
2022/02/22 19:10:14;;;;;;;11.30;3.63;;;;;;;;;;4969270;28;20104;-63
2022/02/22 19:12:39;;;;;;;14.23;4.05;;;;;;;;;;4968878;28;20472;-62
2022/02/22 19:15:05;;;;;;;7.65;3.88;;;;;;;;;;4969247;28;20421;-63
2022/02/22 19:17:30;;;;;;;14.40;4.78;;;;;;;;;;4969020;28;20452;-63
2022/02/22 19:19:56;;;;;;;11.20;3.60;;;;;;;;;;4969916;28;20412;-63
2022/02/22 19:22:21;;;;;;;11.43;3.85;;;;;;;;;;4969215;28;20346;-63
2022/02/22 19:24:47;;;;;;;12.25;4.15;;;;;;;;;;4970685;28;20355;-64
2022/02/22 19:27:12;;;;;;;11.35;3.80;;;;;;;;;;4969185;28;20518;-63
2022/02/22 19:29:38;;;;;;;12.30;3.85;;;;;;;;;;4971656;28;20460;-63
2022/02/22 19:32:04;;;;;;;9.02;4.10;;;;;;;;;;4972899;28;20182;-63
2022/02/22 19:34:29;;;;;;;9.13;3.47;;;;;;;;;;4971593;28;20578;-63
2022/02/22 19:36:54;;;;;;;10.02;3.75;;;;;;;;;;4973274;28;20034;-63
2022/02/22 19:39:21;;;;;;;9.25;4.15;;;;;;;;;;4972911;28;20051;-63
2022/02/22 19:41:47;;;;;;;13.48;4.50;;;;;;;;;;4973242;28;20439;-63
2022/02/22 19:44:13;;;;;;;9.10;4.18;;;;;;;;;;4973153;28;20475;-63
2022/02/22 19:46:39;;;;;;;12.85;3.60;;;;;;;;;;4972930;28;20531;-63
2022/02/22 19:49:04;;;;;;;11.73;4.25;;;;;;;;;;4972556;28;20528;-64
2022/02/22 19:51:30;;;;;;;13.98;4.20;;;;;;;;;;4972313;28;20112;-63
2022/02/22 19:53:56;;;;;;;13.85;4.30;;;;;;;;;;4972668;28;20052;-63
2022/02/22 19:56:21;;;;;;;13.27;4.72;;;;;;;;;;4972529;28;20437;-63
2022/02/22 19:58:47;;;;;;;11.35;4.10;;;;;;;;;;4972503;28;20345;-63
2022/02/22 20:01:12;;;;;;;13.43;4.82;;;;;;;;;;4972352;28;20387;-63
2022/02/22 20:03:37;;;;;;;8.30;3.72;;;;;;;;;;4972413;28;20375;-63
2022/02/22 20:06:04;;;;;;;13.80;4.75;;;;;;;;;;4973007;28;20487;-62
2022/02/22 20:08:30;;;;;;;13.48;4.47;;;;;;;;;;4972027;28;20026;-63
2022/02/22 20:10:55;;;;;;;12.40;5.15;;;;;;;;;;4972164;28;20472;-62
2022/02/22 20:13:20;;;;;;;10.07;4.70;;;;;;;;;;4972132;28;20470;-64
2022/02/22 20:15:47;;;;;;;12.48;4.63;;;;;;;;;;4973143;28;20458;-63
2022/02/22 20:18:13;;;;;;;14.40;5.55;;;;;;;;;;4972755;28;20333;-63
2022/02/22 20:20:39;;;;;;;14.00;5.30;;;;;;;;;;4972181;28;20100;-63
2022/02/22 20:23:04;;;;;;;11.88;4.93;;;;;;;;;;4972496;28;20456;-63
2022/02/22 20:25:29;;;;;;;10.68;4.75;;;;;;;;;;4971944;28;20455;-63
2022/02/22 20:27:55;;;;;;;14.23;5.95;;;;;;;;;;4972240;28;20045;-64
2022/02/22 20:30:20;;;;;;;11.60;4.68;;;;;;;;;;4972190;28;20359;-62
2022/02/22 20:32:46;;;;;;;18.67;7.00;;;;;;;;;;4972588;28;20475;-63
2022/02/22 20:35:11;;;;;;;19.60;6.47;;;;;;;;;;4972026;28;20403;-63
2022/02/22 20:37:36;;;;;;;17.33;6.75;;;;;;;;;;4973270;28;20626;-63
2022/02/22 20:40:03;;;;;;;21.48;6.95;;;;;;;;;;4970951;28;20448;-63
2022/02/22 20:42:28;;;;;;;17.83;6.90;;;;;;;;;;4971509;28;20030;-63
2022/02/22 20:44:54;;;;;;;21.80;7.07;;;;;;;;;;4971821;28;20104;-63
2022/02/22 20:47:19;;;;;;;20.15;7.30;;;;;;;;;;4971506;28;20559;-63
2022/02/22 20:49:44;;;;;;;18.73;7.20;;;;;;;;;;4971646;28;20033;-63
2022/02/22 20:52:10;;;;;;;19.50;7.13;;;;;;;;;;4970772;28;20473;-62
2022/02/22 20:54:35;;;;;;;18.65;7.00;;;;;;;;;;4971683;28;20353;-63
2022/02/22 20:57:01;;;;;;;20.65;7.05;;;;;;;;;;4971510;28;20364;-63
2022/02/22 20:59:27;;;;;;;20.83;7.63;;;;;;;;;;4971648;28;20428;-63
2022/02/22 21:01:53;;;;;;;16.77;7.18;;;;;;;;;;4971673;28;20554;-63
2022/02/22 21:04:18;;;;;;;17.83;7.18;;;;;;;;;;4971776;28;20143;-63
2022/02/22 21:06:44;;;;;;;19.35;7.20;;;;;;;;;;4971204;28;20472;-63
2022/02/22 21:09:09;;;;;;;18.50;6.82;;;;;;;;;;4971192;28;20352;-63
2022/02/22 21:11:35;;;;;;;19.42;7.18;;;;;;;;;;4970787;28;20108;-63
2022/02/22 21:14:00;;;;;;;21.95;8.27;;;;;;;;;;4971137;28;20439;-63
2022/02/22 21:16:26;;;;;;;20.25;7.43;;;;;;;;;;4970931;28;20425;-63
2022/02/22 21:18:51;;;;;;;21.95;6.95;;;;;;;;;;4972900;28;20408;-63
2022/02/22 21:21:16;;;;;;;20.13;7.68;;;;;;;;;;4970986;28;20446;-63
2022/02/22 21:23:42;;;;;;;29.48;8.50;;;;;;;;;;4970915;28;20452;-63
2022/02/22 21:26:09;;;;;;;21.77;7.32;;;;;;;;;;4970818;28;20440;-63
2022/02/22 21:28:34;;;;;;;22.10;8.30;;;;;;;;;;4971507;28;20356;-63
2022/02/22 21:31:00;;;;;;;25.98;7.70;;;;;;;;;;4970764;28;20092;-63
2022/02/22 21:33:26;;;;;;;16.42;7.95;;;;;;;;;;4971120;28;20120;-63